Druid Hills, Georgia
Current Conditions -  °F | °C
As of 2:53 PM on Saturday 25 Oct 2014 (Local Time) from KPDK Reporting Station
Clear Clear  
Wind Chill: 23°   Ceiling: Unl
Heat Index: 23°   Visibility: 10mi
Dew Point:   Wind: 8mph
Humidity: 29%   Direction: 310°NW
Pressure: 30.02"   Gusts: NA
Location:  33.7788°N, 84.3361°W
Report Text: KPDK 251853Z 31007KT 10SM CLR 23/04 A3002 RMK AO2 SLP163 T02330044
Loading
Personal Weather Stations






























Interactive Weather Map
Tropical Storm Tracking
New forecast layout! Learn more

10-Day Weather Forecast

Advertisements
Track Severe Weather on mobile